Time;durP1;ratioP1;P1;durP2;ratioP2;P2;SDS_P1;SDS_P2;PMS_P1;PMS_P2;Temp;Humidity;BMP_temperature;BMP_pressure;BME280_temperature;BME280_humidity;BME280_pressure;Samples;Min_cycle;Max_cycle;Signal;HPM_P1;HPM_P2
2024/01/21 00:00:50;;;;;;;2.10;1.90;;;;;;;12.35;48.30;98574.16;105463;1258;66118;-40
2024/01/21 00:03:17;;;;;;;2.40;1.80;;;;;;;12.35;48.29;98570.23;105398;1254;71704;-40
2024/01/21 00:05:44;;;;;;;1.70;1.60;;;;;;;12.35;48.24;98578.35;105368;1255;62036;-41
2024/01/21 00:08:10;;;;;;;2.50;2.00;;;;;;;12.35;48.36;98577.75;105473;1256;62152;-40
2024/01/21 00:10:37;;;;;;;2.30;1.90;;;;;;;12.35;48.27;98583.39;105447;1258;75546;-39
2024/01/21 00:13:03;;;;;;;2.10;1.90;;;;;;;12.36;48.20;98588.92;105512;1258;66020;-41
2024/01/21 00:15:30;;;;;;;2.90;1.90;;;;;;;12.35;48.30;98590.15;105414;1255;72466;-41
2024/01/21 00:17:57;;;;;;;2.30;1.80;;;;;;;12.36;48.17;98590.30;105365;1259;62029;-40
2024/01/21 00:20:23;;;;;;;2.60;1.70;;;;;;;12.35;48.27;98595.37;105336;1254;62129;-40
2024/01/21 00:22:50;;;;;;;2.40;2.00;;;;;;;12.36;48.30;98597.67;105334;1254;75382;-40
2024/01/21 00:25:17;;;;;;;2.20;1.60;;;;;;;12.36;48.35;98599.39;105350;1258;62065;-41
2024/01/21 00:27:43;;;;;;;2.10;1.70;;;;;;;12.37;48.34;98603.26;105444;1254;72621;-40
2024/01/21 00:30:11;;;;;;;2.30;1.90;;;;;;;12.36;48.34;98606.97;105591;1258;62047;-40
2024/01/21 00:32:38;;;;;;;1.80;1.60;;;;;;;12.36;48.16;98610.45;105435;1258;62474;-40
2024/01/21 00:35:06;;;;;;;2.60;2.00;;;;;;;12.36;48.17;98608.52;105397;1258;75467;-40
2024/01/21 00:37:32;;;;;;;2.70;2.10;;;;;;;12.37;48.22;98609.48;105606;1258;65997;-40
2024/01/21 00:39:59;;;;;;;2.40;1.80;;;;;;;12.37;48.34;98613.73;105413;1254;72612;-41
2024/01/21 00:42:26;;;;;;;2.10;1.90;;;;;;;12.38;48.23;98614.58;105347;1258;62049;-40
2024/01/21 00:44:52;;;;;;;2.60;2.00;;;;;;;12.37;48.37;98620.01;105380;1256;62093;-41
2024/01/21 00:47:20;;;;;;;2.00;1.80;;;;;;;12.38;48.26;98626.56;105597;1254;75293;-40
2024/01/21 00:49:46;;;;;;;2.80;1.80;;;;;;;12.38;48.32;98625.65;105438;1254;66138;-41
2024/01/21 00:52:13;;;;;;;2.10;1.80;;;;;;;12.38;48.30;98626.34;105356;1255;72507;-39
2024/01/21 00:54:40;;;;;;;1.70;1.60;;;;;;;12.38;48.21;98623.82;105506;1256;62161;-40
2024/01/21 00:57:07;;;;;;;2.20;1.70;;;;;;;12.38;48.21;98625.54;105516;1256;62041;-40
2024/01/21 00:59:33;;;;;;;2.50;1.90;;;;;;;12.39;48.24;98623.34;105310;1258;75117;-41
2024/01/21 01:02:00;;;;;;;2.00;1.60;;;;;;;12.38;48.19;98634.36;105470;1256;65542;-41
2024/01/21 01:04:26;;;;;;;2.10;1.70;;;;;;;12.39;48.21;98643.60;105512;1258;73231;-40
2024/01/21 01:06:53;;;;;;;3.70;2.10;;;;;;;12.39;48.27;98642.77;105623;1258;62051;-40
2024/01/21 01:09:20;;;;;;;4.40;2.10;;;;;;;12.39;48.17;98646.05;105663;1254;62154;-40
2024/01/21 01:11:47;;;;;;;3.20;2.10;;;;;;;12.39;48.15;98644.35;105662;1257;75393;-40
2024/01/21 01:14:13;;;;;;;2.90;1.80;;;;;;;12.40;48.23;98647.01;105715;1258;66110;-39
2024/01/21 01:16:40;;;;;;;2.60;1.60;;;;;;;12.40;48.22;98649.15;105431;1254;72416;-40
2024/01/21 01:19:07;;;;;;;2.40;1.70;;;;;;;12.39;48.16;98654.53;105180;1259;162802;-41
2024/01/21 01:21:34;;;;;;;1.80;1.60;;;;;;;12.40;48.13;98655.02;105467;1256;62149;-40
2024/01/21 01:24:01;;;;;;;2.90;1.90;;;;;;;12.40;48.27;98654.31;105713;1256;75271;-39
2024/01/21 01:26:28;;;;;;;2.60;1.90;;;;;;;12.40;48.23;98666.45;105609;1259;64967;-40
2024/01/21 01:28:54;;;;;;;2.40;1.80;;;;;;;12.39;48.08;98667.05;105549;1255;73329;-40
2024/01/21 01:31:21;;;;;;;2.10;1.90;;;;;;;12.40;48.23;98670.37;105606;1258;62042;-40
2024/01/21 01:33:48;;;;;;;1.80;1.60;;;;;;;12.40;48.31;98670.00;105602;1256;62039;-41
2024/01/21 01:36:15;;;;;;;2.30;1.70;;;;;;;12.40;48.26;98669.46;105379;1256;75365;-40
2024/01/21 01:38:41;;;;;;;2.40;1.90;;;;;;;12.40;48.29;98669.89;105573;1254;62541;-40
2024/01/21 01:41:10;;;;;;;2.60;1.80;;;;;;;12.40;48.18;98676.19;105623;1256;72386;-40
2024/01/21 01:43:36;;;;;;;2.00;1.70;;;;;;;12.40;48.19;98675.59;105742;1258;62047;-40
2024/01/21 01:46:04;;;;;;;2.70;1.90;;;;;;;12.40;48.15;98679.84;105683;1255;62034;-40
2024/01/21 01:48:31;;;;;;;2.40;1.80;;;;;;;12.40;48.13;98681.13;105646;1258;74240;-40
2024/01/21 01:50:59;;;;;;;2.00;1.80;;;;;;;12.41;48.18;98681.94;105386;1254;66091;-41
2024/01/21 01:53:27;;;;;;;3.30;2.00;;;;;;;12.40;48.27;98680.75;105545;1256;72660;-40
2024/01/21 01:55:53;;;;;;;1.70;1.60;;;;;;;12.40;48.24;98689.50;105415;1258;62388;-41
2024/01/21 01:58:20;;;;;;;3.00;1.70;;;;;;;12.41;48.25;98697.14;105616;1259;62157;-41
2024/01/21 02:00:49;;;;;;;2.30;1.80;;;;;;;12.41;48.19;98696.98;105634;1255;75378;-39
2024/01/21 02:03:16;;;;;;;1.80;1.60;;;;;;;12.40;48.08;98694.66;105625;1261;66157;-40
2024/01/21 02:05:43;;;;;;;2.10;1.90;;;;;;;12.41;48.14;98697.88;105558;1261;72649;-40
2024/01/21 02:08:09;;;;;;;1.80;1.70;;;;;;;12.42;48.36;98693.36;105351;1256;62077;-40
2024/01/21 02:10:36;;;;;;;2.20;1.70;;;;;;;12.41;48.23;98696.11;105502;1256;62074;-40
2024/01/21 02:13:03;;;;;;;2.00;1.70;;;;;;;12.42;48.25;98701.04;105507;1256;76449;-41
2024/01/21 02:15:30;;;;;;;2.10;1.90;;;;;;;12.42;48.14;98703.95;105325;1256;66901;-41
2024/01/21 02:17:56;;;;;;;1.90;1.70;;;;;;;12.41;48.15;98711.52;105520;1256;72772;-40
2024/01/21 02:20:23;;;;;;;2.90;1.80;;;;;;;12.42;48.18;98714.41;105345;1261;62053;-41
2024/01/21 02:22:50;;;;;;;2.70;1.70;;;;;;;12.42;48.13;98721.88;105688;1256;62123;-39
2024/01/21 02:25:16;;;;;;;1.90;1.50;;;;;;;12.42;48.18;98717.80;105576;1256;62099;-40
2024/01/21 02:27:43;;;;;;;2.10;1.90;;;;;;;12.43;48.19;98728.96;105637;1260;65909;-40
2024/01/21 02:30:10;;;;;;;2.20;1.90;;;;;;;12.43;48.25;98724.52;105611;1256;72598;-41
2024/01/21 02:32:37;;;;;;;3.20;2.00;;;;;;;12.43;48.15;98730.04;105565;1261;62051;-40
2024/01/21 02:35:04;;;;;;;2.70;2.00;;;;;;;12.42;48.24;98733.60;105463;1256;62154;-40
2024/01/21 02:37:31;;;;;;;1.80;1.50;;;;;;;12.42;48.21;98743.00;105507;1258;75361;-40
2024/01/21 02:39:57;;;;;;;2.30;2.00;;;;;;;12.43;48.19;98753.69;105529;1260;65760;-40
2024/01/21 02:42:26;;;;;;;2.00;1.50;;;;;;;12.43;48.05;98757.08;105591;1259;62068;-40
2024/01/21 02:44:54;;;;;;;1.90;1.60;;;;;;;12.43;48.25;98759.17;105628;1256;62074;-40
2024/01/21 02:47:23;;;;;;;3.30;1.80;;;;;;;12.43;48.19;98761.63;105616;1256;62025;-40
2024/01/21 02:49:50;;;;;;;2.60;1.70;;;;;;;12.43;48.16;98763.68;105594;1260;75509;-40
2024/01/21 02:52:16;;;;;;;2.00;1.80;;;;;;;12.43;48.12;98765.67;105613;1261;66557;-41
2024/01/21 02:54:43;;;;;;;3.00;1.80;;;;;;;12.43;48.15;98765.14;105342;1256;72463;-40
2024/01/21 02:57:10;;;;;;;1.80;1.60;;;;;;;12.44;48.30;98771.63;105608;1256;62540;-40
2024/01/21 02:59:36;;;;;;;1.60;1.50;;;;;;;12.43;48.23;98780.06;105599;1256;62576;-40
2024/01/21 03:02:03;;;;;;;1.70;1.60;;;;;;;12.44;48.14;98784.23;105380;1258;75278;-40
2024/01/21 03:04:30;;;;;;;2.40;2.00;;;;;;;12.44;48.09;98792.14;105601;1258;63978;-40
2024/01/21 03:06:56;;;;;;;1.90;1.60;;;;;;;12.44;48.23;98793.06;105598;1255;62053;-40
2024/01/21 03:09:23;;;;;;;2.70;1.70;;;;;;;12.44;48.24;98795.20;105610;1256;62003;-40
2024/01/21 03:11:50;;;;;;;2.40;1.80;;;;;;;12.44;48.12;98801.44;105887;1258;62035;-39
2024/01/21 03:14:16;;;;;;;2.80;1.80;;;;;;;12.44;48.18;98803.27;105512;1258;75419;-40
2024/01/21 03:16:43;;;;;;;1.80;1.50;;;;;;;12.44;48.23;98810.67;105707;1258;61923;-40
2024/01/21 03:19:09;;;;;;;1.80;1.50;;;;;;;12.44;48.21;98817.34;105310;1255;62176;-41
2024/01/21 03:21:36;;;;;;;2.40;1.80;;;;;;;12.45;48.17;98827.50;105269;1258;62053;-40
2024/01/21 03:24:03;;;;;;;1.80;1.50;;;;;;;12.44;48.11;98833.09;105416;1255;62171;-39
2024/01/21 03:26:30;;;;;;;2.40;1.80;;;;;;;12.44;48.10;98834.86;105586;1258;74821;-40
2024/01/21 03:28:57;;;;;;;2.00;1.80;;;;;;;12.44;48.27;98836.15;105507;1258;63914;-40
2024/01/21 03:31:23;;;;;;;2.50;1.70;;;;;;;12.44;48.14;98840.23;105542;1256;72494;-40
2024/01/21 03:33:50;;;;;;;2.30;1.70;;;;;;;12.45;48.10;98847.86;105615;1258;62101;-40
2024/01/21 03:36:17;;;;;;;1.90;1.70;;;;;;;12.45;48.22;98851.14;105643;1258;62047;-39
2024/01/21 03:38:45;;;;;;;3.00;2.00;;;;;;;12.45;48.08;98856.63;105701;1257;74377;-40
2024/01/21 03:41:12;;;;;;;2.30;1.70;;;;;;;12.45;48.29;98865.27;105646;1256;65879;-40
2024/01/21 03:43:38;;;;;;;1.70;1.50;;;;;;;12.44;48.23;98869.30;105634;1256;72507;-40
2024/01/21 03:46:05;;;;;;;2.10;1.70;;;;;;;12.44;48.08;98872.31;105669;1255;62060;-40
2024/01/21 03:48:32;;;;;;;2.30;1.70;;;;;;;12.44;48.15;98886.98;105654;1256;62671;-40
2024/01/21 03:50:59;;;;;;;2.20;1.80;;;;;;;12.44;48.20;98891.45;105564;1258;75777;-40
2024/01/21 03:53:25;;;;;;;2.90;1.80;;;;;;;12.44;48.24;98888.11;105437;1256;62086;-41
2024/01/21 03:55:52;;;;;;;2.90;1.70;;;;;;;12.44;48.18;98888.59;105335;1256;72420;-41
2024/01/21 03:58:18;;;;;;;2.00;1.60;;;;;;;12.44;48.16;98888.81;105327;1258;62058;-41
2024/01/21 04:00:45;;;;;;;2.00;1.50;;;;;;;12.45;48.06;98894.08;105391;1258;62490;-40
2024/01/21 04:03:12;;;;;;;2.10;1.40;;;;;;;12.44;48.15;98899.19;105708;1255;75384;-40
2024/01/21 04:05:38;;;;;;;1.90;1.70;;;;;;;12.44;48.13;98900.05;105645;1258;65787;-40
2024/01/21 04:08:06;;;;;;;2.30;1.90;;;;;;;12.45;48.08;98905.04;105368;1256;72453;-40
2024/01/21 04:10:32;;;;;;;2.10;1.60;;;;;;;12.44;48.15;98907.24;105546;1255;62426;-40
2024/01/21 04:12:59;;;;;;;1.90;1.60;;;;;;;12.44;48.16;98910.63;105556;1256;62160;-40
2024/01/21 04:15:25;;;;;;;1.90;1.60;;;;;;;12.45;48.13;98914.70;105492;1256;75342;-40
2024/01/21 04:17:52;;;;;;;2.20;1.80;;;;;;;12.45;48.21;98920.57;105711;1258;66257;-40
2024/01/21 04:20:19;;;;;;;1.90;1.70;;;;;;;12.45;48.06;98922.67;105690;1256;72588;-40
2024/01/21 04:22:46;;;;;;;1.80;1.60;;;;;;;12.45;48.17;98929.17;105446;1258;62136;-40
2024/01/21 04:25:12;;;;;;;2.30;1.50;;;;;;;12.45;48.16;98937.77;105585;1254;62047;-40
2024/01/21 04:27:39;;;;;;;1.80;1.60;;;;;;;12.45;48.23;98940.24;105667;1259;75441;-40
2024/01/21 04:30:06;;;;;;;2.40;1.60;;;;;;;12.45;48.10;98945.02;105506;1258;66182;-40
2024/01/21 04:32:34;;;;;;;2.10;1.60;;;;;;;12.45;48.18;98949.22;105641;1258;72661;-40
2024/01/21 04:35:00;;;;;;;3.60;1.60;;;;;;;12.45;48.16;98952.98;105653;1259;62035;-40
2024/01/21 04:37:27;;;;;;;1.80;1.50;;;;;;;12.45;48.07;98960.66;105650;1258;62506;-41
2024/01/21 04:39:54;;;;;;;2.20;1.40;;;;;;;12.45;48.19;98967.59;105386;1258;75252;-41
2024/01/21 04:42:20;;;;;;;2.10;1.60;;;;;;;12.45;48.20;98974.79;105571;1256;67270;-41
2024/01/21 04:44:47;;;;;;;1.80;1.50;;;;;;;12.46;48.17;98975.44;105695;1256;72407;-41
2024/01/21 04:47:14;;;;;;;1.60;1.40;;;;;;;12.45;48.16;98973.71;105661;1258;62063;-40
2024/01/21 04:49:40;;;;;;;2.30;1.50;;;;;;;12.45;48.13;98978.55;105617;1256;62265;-40
2024/01/21 04:52:07;;;;;;;3.00;1.50;;;;;;;12.45;48.15;98983.81;105647;1256;75354;-39
2024/01/21 04:54:34;;;;;;;1.80;1.30;;;;;;;12.45;48.08;98985.96;105596;1258;65665;-40
2024/01/21 04:57:00;;;;;;;1.90;1.50;;;;;;;12.45;48.16;98988.60;105443;1255;73011;-40
2024/01/21 04:59:27;;;;;;;2.20;1.50;;;;;;;12.45;48.14;98993.65;105321;1258;62043;-40
2024/01/21 05:01:53;;;;;;;1.80;1.60;;;;;;;12.45;48.09;99002.46;105598;1256;62135;-40
2024/01/21 05:04:20;;;;;;;2.50;1.60;;;;;;;12.45;48.12;99008.70;105524;1256;62147;-40
2024/01/21 05:06:46;;;;;;;2.60;1.50;;;;;;;12.45;48.15;99014.34;105668;1256;65762;-40
2024/01/21 05:09:13;;;;;;;2.20;1.50;;;;;;;12.45;48.21;99020.41;105678;1256;72316;-40
2024/01/21 05:11:40;;;;;;;2.10;1.50;;;;;;;12.45;48.02;99031.11;106118;1258;62277;-40
2024/01/21 05:14:07;;;;;;;2.20;1.40;;;;;;;12.45;48.04;99031.97;105506;1256;62488;-40
2024/01/21 05:16:33;;;;;;;1.80;1.60;;;;;;;12.45;48.14;99037.83;105595;1254;63936;-40
2024/01/21 05:19:00;;;;;;;2.10;1.60;;;;;;;12.45;48.21;99045.23;105651;1256;62153;-40
2024/01/21 05:21:26;;;;;;;1.60;1.40;;;;;;;12.45;48.05;99047.50;105568;1254;72567;-40
2024/01/21 05:23:53;;;;;;;2.90;1.70;;;;;;;12.45;48.18;99049.33;105706;1266;61959;-39
2024/01/21 05:26:19;;;;;;;2.20;1.70;;;;;;;12.45;48.15;99052.77;105708;1256;62166;-40
2024/01/21 05:28:46;;;;;;;2.00;1.40;;;;;;;12.45;48.03;99054.05;105634;1258;75232;-40
2024/01/21 05:31:13;;;;;;;2.00;1.60;;;;;;;12.45;48.14;99060.98;105531;1258;65868;-40
2024/01/21 05:33:40;;;;;;;1.70;1.50;;;;;;;12.45;48.15;99067.55;105481;1254;72498;-40
2024/01/21 05:36:09;;;;;;;2.00;1.60;;;;;;;12.45;48.02;99070.83;105543;1258;62039;-40
2024/01/21 05:38:35;;;;;;;2.70;1.60;;;;;;;12.45;48.14;99076.41;105706;1259;62055;-40
2024/01/21 05:41:02;;;;;;;2.10;1.50;;;;;;;12.45;48.25;99081.20;105570;1255;75366;-40
2024/01/21 05:43:29;;;;;;;2.50;1.70;;;;;;;12.45;48.20;99086.20;105428;1258;65585;-40
2024/01/21 05:45:55;;;;;;;1.50;1.40;;;;;;;12.45;48.06;99092.96;105334;1254;72654;-40
2024/01/21 05:48:22;;;;;;;2.60;1.60;;;;;;;12.45;48.16;99099.25;105522;1258;62054;-40
2024/01/21 05:50:49;;;;;;;2.30;1.40;;;;;;;12.45;48.27;99101.45;105310;1259;62036;-40
2024/01/21 05:53:16;;;;;;;1.90;1.30;;;;;;;12.46;48.20;99107.48;105639;1254;75185;-40
2024/01/21 05:55:42;;;;;;;1.90;1.50;;;;;;;12.46;48.09;99106.40;105475;1260;65239;-40
2024/01/21 05:58:09;;;;;;;1.50;1.40;;;;;;;12.45;48.09;99110.96;105643;1258;72518;-40
2024/01/21 06:00:36;;;;;;;2.60;1.70;;;;;;;12.45;48.06;99113.98;105571;1258;62047;-40
2024/01/21 06:03:03;;;;;;;1.80;1.50;;;;;;;12.45;48.00;99120.96;105559;1257;62056;-40
2024/01/21 06:05:29;;;;;;;1.80;1.40;;;;;;;12.46;48.16;99129.25;105356;1258;75435;-40
2024/01/21 06:07:56;;;;;;;1.40;1.30;;;;;;;12.46;48.06;99138.81;105631;1259;65926;-40
2024/01/21 06:10:23;;;;;;;2.10;1.70;;;;;;;12.45;47.99;99147.09;105631;1256;72462;-40
2024/01/21 06:12:49;;;;;;;3.30;1.50;;;;;;;12.46;48.05;99152.19;105336;1257;62055;-41
2024/01/21 06:15:16;;;;;;;1.20;1.10;;;;;;;12.45;48.09;99156.77;105474;1259;62012;-40
2024/01/21 06:17:42;;;;;;;1.40;1.30;;;;;;;12.46;48.09;99157.63;105315;1254;75922;-40
2024/01/21 06:20:11;;;;;;;1.50;1.40;;;;;;;12.46;48.13;99158.86;105565;1258;65557;-39
2024/01/21 06:22:38;;;;;;;1.90;1.50;;;;;;;12.46;48.06;99161.48;105640;1256;71535;-41
2024/01/21 06:25:05;;;;;;;1.90;1.60;;;;;;;12.46;48.10;99166.91;105657;1258;62165;-40
2024/01/21 06:27:31;;;;;;;1.60;1.40;;;;;;;12.45;48.07;99167.19;105423;1258;62057;-40
2024/01/21 06:30:10;;;;;;;2.40;1.50;;;;;;;12.46;48.19;99171.58;105660;1258;75265;-40
2024/01/21 06:32:37;;;;;;;2.60;1.30;;;;;;;12.46;48.11;99173.20;105638;1259;64101;-41
2024/01/21 06:35:05;;;;;;;1.70;1.30;;;;;;;12.45;48.10;99178.63;105668;1257;72641;-40
2024/01/21 06:37:32;;;;;;;1.70;1.40;;;;;;;12.46;48.08;99183.41;105525;1258;62082;-40
2024/01/21 06:39:59;;;;;;;1.50;1.30;;;;;;;12.46;48.27;99184.48;105458;1257;62006;-41
2024/01/21 06:42:32;;;;;;;1.70;1.40;;;;;;;12.45;48.21;99191.15;105343;1259;75918;-41
2024/01/21 06:44:59;;;;;;;1.90;1.30;;;;;;;12.45;48.14;99193.84;105583;1255;66330;-41
2024/01/21 06:47:25;;;;;;;1.50;1.40;;;;;;;12.46;48.24;99198.23;105583;1259;72610;-40
2024/01/21 06:49:52;;;;;;;2.30;1.50;;;;;;;12.46;48.03;99205.12;105642;1263;62072;-40
2024/01/21 06:52:19;;;;;;;1.80;1.50;;;;;;;12.46;48.17;99206.89;105677;1258;62078;-41
2024/01/21 06:54:45;;;;;;;1.50;1.40;;;;;;;12.46;48.03;99211.52;105464;1258;75075;-41
2024/01/21 06:57:12;;;;;;;1.70;1.30;;;;;;;12.46;48.12;99215.23;105691;1259;66275;-41
2024/01/21 06:59:39;;;;;;;2.70;1.40;;;;;;;12.46;48.23;99217.15;105656;1256;72637;-40
2024/01/21 07:02:05;;;;;;;2.00;1.60;;;;;;;12.46;48.01;99221.94;105641;1259;62035;-40
2024/01/21 07:04:33;;;;;;;3.60;1.20;;;;;;;12.46;48.12;99225.43;105706;1259;64019;-40
2024/01/21 07:07:00;;;;;;;2.00;1.50;;;;;;;12.46;47.95;99230.05;105676;1258;75820;-40
2024/01/21 07:09:28;;;;;;;1.90;1.70;;;;;;;12.46;48.10;99227.58;105528;1258;66025;-40
2024/01/21 07:11:55;;;;;;;1.50;1.40;;;;;;;12.46;48.06;99233.22;105460;1256;72336;-41
2024/01/21 07:14:23;;;;;;;1.90;1.40;;;;;;;12.47;48.03;99234.83;105483;1258;62140;-41
2024/01/21 07:16:49;;;;;;;1.60;1.40;;;;;;;12.47;48.00;99242.04;105581;1258;62141;-41
2024/01/21 07:19:16;;;;;;;1.80;1.50;;;;;;;12.47;48.07;99244.45;105464;1258;74400;-41
2024/01/21 07:21:43;;;;;;;2.20;1.60;;;;;;;12.47;48.09;99248.27;105870;1258;65782;-40
2024/01/21 07:24:10;;;;;;;1.60;1.50;;;;;;;12.47;47.91;99255.36;105456;1259;72540;-40
2024/01/21 07:26:37;;;;;;;1.60;1.30;;;;;;;12.47;48.09;99264.45;105503;1261;62020;-41
2024/01/21 07:29:03;;;;;;;2.00;1.40;;;;;;;12.48;48.13;99266.71;105431;1259;62162;-40
2024/01/21 07:31:30;;;;;;;1.60;1.40;;;;;;;12.47;48.06;99269.61;105463;1257;75284;-40
2024/01/21 07:33:56;;;;;;;1.60;1.20;;;;;;;12.47;47.99;99274.28;105362;1259;67139;-39
2024/01/21 07:36:23;;;;;;;1.60;1.40;;;;;;;12.48;48.03;99278.15;105362;1262;72613;-39
2024/01/21 07:38:50;;;;;;;1.80;1.60;;;;;;;12.48;48.09;99276.38;105477;1260;62052;-40
2024/01/21 07:41:17;;;;;;;2.00;1.40;;;;;;;12.48;47.97;99281.27;105604;1255;62157;-39
2024/01/21 07:43:43;;;;;;;1.20;1.10;;;;;;;12.48;48.09;99283.80;105357;1268;75390;-40
2024/01/21 07:46:10;;;;;;;1.50;1.40;;;;;;;12.48;47.99;99287.19;105512;1258;66090;-41
2024/01/21 07:48:37;;;;;;;1.70;1.40;;;;;;;12.48;48.03;99288.79;105462;1259;72430;-41
2024/01/21 07:51:04;;;;;;;2.00;1.50;;;;;;;12.49;47.96;99289.96;105383;1260;62042;-41
2024/01/21 07:53:30;;;;;;;1.70;1.30;;;;;;;12.50;47.91;99296.79;105325;1259;62220;-40
2024/01/21 07:55:57;;;;;;;1.80;1.40;;;;;;;12.49;48.08;99297.65;105365;1256;75436;-41
2024/01/21 07:58:24;;;;;;;1.40;1.30;;;;;;;12.50;48.03;99301.25;105508;1259;65395;-40
2024/01/21 08:00:51;;;;;;;1.50;1.30;;;;;;;12.50;47.83;99305.88;105385;1259;72958;-40
2024/01/21 08:03:18;;;;;;;1.90;1.30;;;;;;;12.50;48.00;99310.48;105447;1259;62036;-41
2024/01/21 08:05:44;;;;;;;1.40;1.30;;;;;;;12.50;47.96;99317.27;105582;1259;62188;-40
2024/01/21 08:08:11;;;;;;;1.40;1.30;;;;;;;12.50;47.95;99319.25;105489;1256;74222;-41
2024/01/21 08:10:38;;;;;;;1.90;1.50;;;;;;;12.51;47.99;99325.98;105425;1258;66335;-40
2024/01/21 08:13:05;;;;;;;1.70;1.40;;;;;;;12.52;48.02;99329.05;105462;1259;72602;-40
2024/01/21 08:15:31;;;;;;;1.80;1.50;;;;;;;12.52;47.85;99333.55;105343;1268;62056;-40
2024/01/21 08:17:59;;;;;;;2.20;1.50;;;;;;;12.51;47.95;99331.79;105255;1254;62170;-40
2024/01/21 08:20:26;;;;;;;1.70;1.50;;;;;;;12.52;48.01;99334.85;105205;1260;75678;-40
2024/01/21 08:22:52;;;;;;;1.40;1.20;;;;;;;12.52;47.85;99336.46;105386;1260;62153;-40
2024/01/21 08:25:19;;;;;;;1.30;1.10;;;;;;;12.53;47.97;99339.73;105393;1259;72613;-40
2024/01/21 08:27:46;;;;;;;1.70;1.40;;;;;;;12.52;47.87;99341.67;105487;1255;62155;-41
2024/01/21 08:30:13;;;;;;;1.60;1.30;;;;;;;12.53;47.89;99348.65;105371;1259;62168;-41
2024/01/21 08:32:40;;;;;;;2.20;1.20;;;;;;;12.53;47.86;99347.20;105511;1259;75129;-41
2024/01/21 08:35:07;;;;;;;1.80;1.40;;;;;;;12.53;47.86;99350.54;105411;1258;66116;-40
2024/01/21 08:37:34;;;;;;;1.50;1.30;;;;;;;12.53;47.84;99352.27;105378;1259;72400;-41
2024/01/21 08:40:01;;;;;;;1.40;1.10;;;;;;;12.53;47.76;99353.11;105353;1261;62060;-40
2024/01/21 08:42:28;;;;;;;1.70;1.40;;;;;;;12.54;47.89;99361.27;105379;1259;62162;-40
2024/01/21 08:44:55;;;;;;;1.70;1.40;;;;;;;12.54;48.01;99367.35;105407;1260;75393;-41
2024/01/21 08:47:22;;;;;;;1.30;1.20;;;;;;;12.54;47.85;99372.84;105681;1258;65576;-40
2024/01/21 08:49:48;;;;;;;1.50;1.40;;;;;;;12.55;47.91;99375.48;105611;1254;72392;-40
2024/01/21 08:52:15;;;;;;;2.00;1.40;;;;;;;12.55;47.83;99380.10;105480;1260;62029;-40
2024/01/21 08:54:42;;;;;;;1.90;1.50;;;;;;;12.54;47.93;99384.61;105507;1259;61912;-40
2024/01/21 08:57:09;;;;;;;1.80;1.20;;;;;;;12.54;47.94;99387.14;105616;1258;75500;-40
2024/01/21 08:59:35;;;;;;;1.60;1.30;;;;;;;12.54;47.79;99392.73;105589;1260;65570;-40
2024/01/21 09:02:02;;;;;;;1.80;1.40;;;;;;;12.53;47.80;99398.81;105660;1257;72615;-40
2024/01/21 09:04:29;;;;;;;2.00;1.30;;;;;;;12.54;47.73;99403.59;105455;1268;62046;-39
2024/01/21 09:06:56;;;;;;;1.40;1.30;;;;;;;12.53;47.76;99407.79;105511;1259;62163;-41
2024/01/21 09:09:22;;;;;;;1.60;1.20;;;;;;;12.52;47.80;99417.58;105467;1257;75198;-41
2024/01/21 09:11:50;;;;;;;1.60;1.30;;;;;;;12.52;47.78;99419.98;105551;1259;66149;-40
2024/01/21 09:14:18;;;;;;;1.50;1.30;;;;;;;12.52;47.86;99423.00;105566;1259;72575;-40
2024/01/21 09:16:44;;;;;;;1.70;1.40;;;;;;;12.52;47.76;99425.95;106091;1258;62141;-40
2024/01/21 09:19:11;;;;;;;1.70;1.50;;;;;;;12.51;47.89;99426.21;105637;1254;62144;-41
2024/01/21 09:21:37;;;;;;;1.30;1.20;;;;;;;12.51;47.82;99427.29;105963;1262;75248;-41
2024/01/21 09:24:06;;;;;;;1.80;1.40;;;;;;;12.51;47.85;99426.98;105490;1256;65478;-40
2024/01/21 09:26:34;;;;;;;1.80;1.60;;;;;;;12.51;47.76;99427.02;105628;1256;71168;-40
2024/01/21 09:29:00;;;;;;;1.60;1.30;;;;;;;12.51;47.72;99431.27;105614;1260;62042;-40
2024/01/21 09:31:27;;;;;;;1.50;1.40;;;;;;;12.51;47.79;99436.75;105676;1259;62176;-40
2024/01/21 09:33:53;;;;;;;1.50;1.30;;;;;;;12.50;47.90;99443.73;105507;1254;75472;-40
2024/01/21 09:36:20;;;;;;;2.30;1.60;;;;;;;12.50;47.86;99450.63;105479;1260;66446;-40
2024/01/21 09:38:47;;;;;;;1.70;1.50;;;;;;;12.49;47.96;99457.07;105420;1254;72389;-40
2024/01/21 09:41:36;;;;;;;1.80;1.40;;;;;;;12.49;47.85;99459.54;105580;1259;62048;-40
2024/01/21 09:44:03;;;;;;;1.90;1.60;;;;;;;12.49;47.79;99462.87;105415;1257;62502;-41
2024/01/21 09:46:30;;;;;;;2.40;1.50;;;;;;;12.48;47.80;99456.31;105583;1259;76164;-39
2024/01/21 09:48:59;;;;;;;1.20;1.10;;;;;;;12.48;47.88;99454.60;105678;1254;66149;-39
2024/01/21 09:51:27;;;;;;;1.50;1.40;;;;;;;12.47;47.83;99448.41;105636;1256;72578;-39
2024/01/21 09:53:54;;;;;;;1.80;1.50;;;;;;;12.47;47.83;99454.31;105706;1258;62042;-39
2024/01/21 09:56:21;;;;;;;1.60;1.30;;;;;;;12.47;47.89;99457.55;105666;1254;62099;-40
2024/01/21 09:58:48;;;;;;;1.40;1.30;;;;;;;12.47;47.82;99457.39;105487;1259;75367;-40
2024/01/21 10:01:16;;;;;;;2.10;1.60;;;;;;;12.47;47.89;99463.88;105635;1258;66156;-40
2024/01/21 10:03:43;;;;;;;1.70;1.40;;;;;;;12.46;47.84;99463.08;105522;1256;72670;-39
2024/01/21 10:06:10;;;;;;;1.80;1.60;;;;;;;12.46;47.85;99469.75;105360;1257;62057;-40
2024/01/21 10:08:38;;;;;;;1.50;1.40;;;;;;;12.46;47.86;99470.08;105474;1259;62147;-39
2024/01/21 10:11:05;;;;;;;1.30;1.20;;;;;;;12.45;48.00;99470.83;105541;1254;75457;-41
2024/01/21 10:13:31;;;;;;;1.40;1.30;;;;;;;12.45;47.85;99470.13;105660;1254;66211;-40
2024/01/21 10:15:58;;;;;;;1.50;1.40;;;;;;;12.44;47.95;99469.90;105471;1259;72479;-40
2024/01/21 10:18:25;;;;;;;2.10;1.50;;;;;;;12.44;47.84;99470.87;105448;1260;62047;-40
2024/01/21 10:20:52;;;;;;;1.80;1.60;;;;;;;12.45;47.80;99471.84;105367;1257;62012;-41
2024/01/21 10:23:19;;;;;;;1.90;1.40;;;;;;;12.45;47.91;99480.44;105518;1258;75337;-40
2024/01/21 10:25:47;;;;;;;1.50;1.40;;;;;;;12.44;47.85;99481.52;105313;1258;66198;-39
2024/01/21 10:28:15;;;;;;;1.40;1.30;;;;;;;12.44;47.84;99488.34;105453;1254;72486;-40
2024/01/21 10:30:42;;;;;;;1.60;1.30;;;;;;;12.42;47.78;99491.88;105389;1258;62046;-41
2024/01/21 10:33:10;;;;;;;1.90;1.50;;;;;;;12.42;47.86;99499.52;105500;1254;62102;-38
2024/01/21 10:35:37;;;;;;;1.90;1.60;;;;;;;12.42;47.83;99503.55;105431;1255;75437;-39
2024/01/21 10:38:14;;;;;;;1.60;1.30;;;;;;;12.41;47.93;99507.21;105434;1259;66000;-40
2024/01/21 10:40:44;;;;;;;1.80;1.30;;;;;;;12.40;47.84;99505.05;105574;1254;72577;-40
2024/01/21 10:43:14;;;;;;;1.30;1.20;;;;;;;12.40;47.92;99507.25;105550;1259;62044;-41
2024/01/21 10:45:45;;;;;;;2.00;1.70;;;;;;;12.39;47.88;99507.41;105491;1255;62057;-41
2024/01/21 10:48:13;;;;;;;1.90;1.40;;;;;;;12.39;47.86;99513.11;105664;1255;75420;-41
2024/01/21 10:50:43;;;;;;;1.90;1.40;;;;;;;12.39;47.85;99515.68;105472;1254;66069;-41
2024/01/21 10:53:13;;;;;;;1.30;1.20;;;;;;;12.38;47.83;99520.46;105466;1254;72547;-39
2024/01/21 10:55:40;;;;;;;1.60;1.50;;;;;;;12.38;47.89;99524.60;105463;1259;62056;-40
2024/01/21 10:58:08;;;;;;;1.50;1.40;;;;;;;12.38;47.93;99527.83;105440;1259;62525;-40
2024/01/21 11:00:36;;;;;;;1.60;1.50;;;;;;;12.37;47.91;99525.77;105535;1254;75289;-40
2024/01/21 11:03:23;;;;;;;1.50;1.40;;;;;;;12.37;47.77;99527.92;105636;1254;67335;-39
2024/01/21 11:05:57;;;;;;;1.50;1.40;;;;;;;12.36;47.77;99528.03;105360;1255;73575;-41
2024/01/21 11:08:24;;;;;;;1.30;1.20;;;;;;;12.36;47.88;99531.48;105419;1257;62044;-41
2024/01/21 11:11:00;;;;;;;1.70;1.40;;;;;;;12.36;47.75;99531.85;105617;1259;62643;-40
2024/01/21 11:13:41;;;;;;;1.90;1.20;;;;;;;12.35;47.81;99531.38;105615;1254;76287;-41
2024/01/21 11:16:26;;;;;;;1.60;1.30;;;;;;;12.35;47.97;99531.20;105618;1259;65961;-40
2024/01/21 11:18:53;;;;;;;1.70;1.40;;;;;;;12.35;47.73;99531.27;105617;1254;73511;-40
2024/01/21 11:21:20;;;;;;;1.70;1.50;;;;;;;12.35;47.73;99534.64;105429;1260;62136;-40
2024/01/21 11:24:01;;;;;;;2.10;1.40;;;;;;;12.35;47.78;99533.83;105544;1254;62141;-41